createdAt,value
2022-07-31T00:00:20.600Z,18.90
2022-07-31T00:02:46.585Z,19.00
2022-07-31T00:05:12.614Z,18.70
2022-07-31T00:07:38.591Z,18.60
2022-07-31T00:10:04.564Z,18.70
2022-07-31T00:12:30.593Z,18.80
2022-07-31T00:14:56.585Z,18.90
2022-07-31T00:17:22.557Z,18.90
2022-07-31T00:19:48.718Z,18.70
2022-07-31T00:22:15.416Z,18.40
2022-07-31T00:24:42.088Z,18.10
2022-07-31T00:27:08.137Z,18.50
2022-07-31T00:29:34.139Z,18.50
2022-07-31T00:32:00.102Z,18.40
2022-07-31T00:34:26.120Z,18.40
2022-07-31T00:36:52.131Z,18.50
2022-07-31T00:39:18.115Z,18.80
2022-07-31T00:41:44.160Z,18.80
2022-07-31T00:44:12.369Z,18.90
2022-07-31T00:46:38.585Z,18.70
2022-07-31T00:49:06.433Z,18.70
2022-07-31T00:51:32.437Z,18.60
2022-07-31T00:53:58.404Z,18.50
2022-07-31T00:56:25.515Z,18.60
2022-07-31T00:58:51.495Z,18.70
2022-07-31T01:01:17.500Z,18.70
2022-07-31T01:03:43.566Z,18.80
2022-07-31T01:06:09.533Z,18.90
2022-07-31T01:08:35.512Z,18.60
2022-07-31T01:11:01.529Z,18.60
2022-07-31T01:13:27.511Z,18.50
2022-07-31T01:15:53.479Z,18.10
2022-07-31T01:18:19.490Z,18.20
2022-07-31T01:20:45.455Z,18.40
2022-07-31T01:23:11.437Z,18.50
2022-07-31T01:25:37.459Z,18.20
2022-07-31T01:28:03.439Z,18.30
2022-07-31T01:30:30.922Z,17.90
2022-07-31T01:32:57.066Z,17.80
2022-07-31T01:35:23.035Z,17.60
2022-07-31T01:37:49.003Z,17.70
2022-07-31T01:40:15.048Z,17.90
2022-07-31T01:42:41.025Z,17.70
2022-07-31T01:45:07.001Z,17.50
2022-07-31T01:47:33.049Z,17.60
2022-07-31T01:49:59.531Z,17.90
2022-07-31T01:52:25.790Z,17.70
2022-07-31T01:54:51.844Z,17.80
2022-07-31T01:57:18.728Z,17.80
2022-07-31T01:59:46.303Z,17.50
2022-07-31T02:02:12.446Z,17.60
2022-07-31T02:04:38.417Z,17.50
2022-07-31T02:07:04.414Z,17.40
2022-07-31T02:09:30.428Z,17.60
2022-07-31T02:11:56.417Z,17.20
2022-07-31T02:14:22.836Z,17.30
2022-07-31T02:16:48.861Z,17.50
2022-07-31T02:19:14.826Z,17.60
2022-07-31T02:21:40.792Z,17.70
2022-07-31T02:24:06.808Z,17.60
2022-07-31T02:26:32.792Z,17.80
2022-07-31T02:28:58.760Z,17.80
2022-07-31T02:31:26.814Z,17.60
2022-07-31T02:33:53.580Z,17.60
2022-07-31T02:36:19.582Z,17.70
2022-07-31T02:38:45.594Z,17.60
2022-07-31T02:41:11.567Z,17.60
2022-07-31T02:43:37.541Z,17.30
2022-07-31T02:46:03.587Z,17.40
2022-07-31T02:48:29.561Z,17.50
2022-07-31T02:50:55.531Z,17.50
2022-07-31T02:53:21.545Z,17.50
2022-07-31T02:55:47.542Z,17.50
2022-07-31T02:58:13.512Z,17.40
2022-07-31T03:00:39.631Z,17.60
2022-07-31T03:03:05.628Z,17.60
2022-07-31T03:05:31.603Z,17.50
2022-07-31T03:07:58.423Z,17.60
2022-07-31T03:10:25.851Z,17.60
2022-07-31T03:12:51.872Z,17.20
2022-07-31T03:15:17.885Z,17.50
2022-07-31T03:17:43.850Z,17.50
2022-07-31T03:20:09.839Z,17.20
2022-07-31T03:22:35.856Z,17.30
2022-07-31T03:25:01.827Z,17.10
2022-07-31T03:27:27.842Z,16.90
2022-07-31T03:29:53.865Z,17.10
2022-07-31T03:32:19.827Z,17.40
2022-07-31T03:34:46.593Z,16.90
2022-07-31T03:37:13.539Z,17.10
2022-07-31T03:39:40.097Z,17.30
2022-07-31T03:42:06.366Z,17.30
2022-07-31T03:44:40.470Z,17.10
2022-07-31T03:47:06.434Z,17.00
2022-07-31T03:49:32.506Z,17.10
2022-07-31T03:51:58.595Z,17.40
2022-07-31T03:54:24.631Z,17.50
2022-07-31T03:56:50.615Z,17.40
2022-07-31T03:59:16.778Z,17.30
2022-07-31T04:01:57.316Z,17.30
2022-07-31T04:04:24.848Z,16.90
2022-07-31T04:06:50.822Z,17.30
2022-07-31T04:09:18.870Z,17.50
2022-07-31T04:11:45.236Z,17.00
2022-07-31T04:14:11.215Z,17.30
2022-07-31T04:16:37.188Z,17.50
2022-07-31T04:19:03.208Z,17.20
2022-07-31T04:21:29.198Z,17.20
2022-07-31T04:23:55.173Z,17.30
2022-07-31T04:26:26.117Z,17.00
2022-07-31T04:28:52.448Z,17.10
2022-07-31T04:31:18.423Z,17.10
2022-07-31T04:33:47.384Z,17.30
2022-07-31T04:36:29.277Z,17.50
2022-07-31T04:38:56.761Z,17.70
2022-07-31T04:41:25.364Z,17.90
2022-07-31T04:43:52.135Z,18.10
2022-07-31T04:46:18.187Z,18.30
2022-07-31T04:48:44.184Z,18.20
2022-07-31T04:51:11.005Z,18.40
2022-07-31T04:53:40.993Z,18.60
2022-07-31T04:56:06.956Z,18.80
2022-07-31T04:58:32.929Z,19.00
2022-07-31T05:00:58.950Z,19.10
2022-07-31T05:03:25.816Z,19.40
2022-07-31T05:05:53.047Z,19.70
2022-07-31T05:08:19.061Z,19.60
2022-07-31T05:10:45.850Z,19.80
2022-07-31T05:13:11.818Z,20.10
2022-07-31T05:15:37.873Z,19.90
2022-07-31T05:18:03.842Z,19.90
2022-07-31T05:20:29.828Z,19.80
2022-07-31T05:22:55.862Z,20.10
2022-07-31T05:25:23.054Z,19.90
2022-07-31T05:27:50.120Z,19.50
2022-07-31T05:30:16.212Z,19.70
2022-07-31T05:32:42.200Z,20.00
2022-07-31T05:35:08.175Z,20.00
2022-07-31T05:37:35.880Z,20.10
2022-07-31T05:40:01.841Z,20.30
2022-07-31T05:42:27.829Z,20.50
2022-07-31T05:44:53.931Z,20.80
2022-07-31T05:47:19.920Z,20.90
2022-07-31T05:49:45.925Z,20.70
2022-07-31T05:52:11.953Z,21.20
2022-07-31T05:54:37.931Z,21.90
2022-07-31T05:57:03.908Z,22.00
2022-07-31T05:59:29.927Z,22.10
2022-07-31T06:01:55.971Z,22.20
2022-07-31T06:04:22.776Z,22.40
2022-07-31T06:06:49.675Z,22.60
2022-07-31T06:09:15.664Z,22.70
2022-07-31T06:11:42.388Z,23.00
2022-07-31T06:14:09.297Z,23.30
2022-07-31T06:16:35.995Z,23.60
2022-07-31T06:19:01.979Z,23.60
2022-07-31T06:21:30.738Z,23.20
2022-07-31T06:23:57.814Z,23.40
2022-07-31T06:26:26.807Z,23.50
2022-07-31T06:28:53.789Z,23.10
2022-07-31T06:31:19.855Z,23.80
2022-07-31T06:33:48.242Z,23.70
2022-07-31T06:36:14.647Z,24.00
2022-07-31T06:38:40.617Z,23.90
2022-07-31T06:41:06.590Z,23.80
2022-07-31T06:43:32.610Z,23.70
2022-07-31T06:45:58.589Z,24.10
2022-07-31T06:48:24.560Z,24.30
2022-07-31T06:51:08.515Z,24.80
2022-07-31T06:53:39.247Z,25.20
2022-07-31T06:56:05.259Z,25.10
2022-07-31T06:58:31.224Z,25.40
2022-07-31T07:00:57.224Z,25.50
2022-07-31T07:03:24.088Z,25.30
2022-07-31T07:05:50.058Z,25.40
2022-07-31T07:08:16.060Z,25.60
2022-07-31T07:10:42.097Z,25.50
2022-07-31T07:13:08.064Z,25.80
2022-07-31T07:15:34.044Z,26.00
2022-07-31T07:18:00.077Z,25.80
2022-07-31T07:20:26.056Z,25.50
2022-07-31T07:22:52.041Z,25.70
2022-07-31T07:25:18.088Z,25.70
2022-07-31T07:27:44.065Z,25.90
2022-07-31T07:30:10.062Z,25.80
2022-07-31T07:32:36.106Z,26.00
2022-07-31T07:35:02.096Z,26.10
2022-07-31T07:37:28.082Z,26.20
2022-07-31T07:39:54.095Z,26.40
2022-07-31T07:42:20.059Z,26.40
2022-07-31T07:44:46.050Z,26.20
2022-07-31T07:47:12.268Z,25.80
2022-07-31T07:49:39.012Z,26.30
2022-07-31T07:52:05.795Z,26.30
2022-07-31T07:54:31.823Z,26.40
2022-07-31T07:56:57.816Z,26.50
2022-07-31T07:59:25.151Z,26.50
2022-07-31T08:01:51.171Z,26.30
2022-07-31T08:04:17.135Z,26.40
2022-07-31T08:06:43.131Z,26.60
2022-07-31T08:09:09.153Z,26.80
2022-07-31T08:11:35.121Z,26.90
2022-07-31T08:14:01.100Z,26.90
2022-07-31T08:16:27.127Z,26.80
2022-07-31T08:18:53.110Z,26.50
2022-07-31T08:21:19.100Z,26.70
2022-07-31T08:23:45.117Z,26.90
2022-07-31T08:26:11.568Z,26.70
2022-07-31T08:28:39.127Z,26.70
2022-07-31T08:31:05.179Z,26.90
2022-07-31T08:33:31.165Z,26.80
2022-07-31T08:35:57.267Z,26.70
2022-07-31T08:38:26.041Z,26.90
2022-07-31T08:40:52.751Z,27.00
2022-07-31T08:44:00.705Z,27.00
2022-07-31T08:46:05.552Z,26.80
2022-07-31T08:48:32.220Z,27.00
2022-07-31T08:50:58.218Z,27.10
2022-07-31T08:53:25.251Z,27.30
2022-07-31T08:55:56.722Z,27.10
2022-07-31T08:58:24.855Z,27.50
2022-07-31T09:00:51.041Z,27.30
2022-07-31T09:03:17.040Z,27.50
2022-07-31T09:05:43.039Z,27.60
2022-07-31T09:08:14.814Z,27.70
2022-07-31T09:10:43.941Z,27.80
2022-07-31T09:13:15.091Z,27.50
2022-07-31T09:15:41.367Z,27.50
2022-07-31T09:18:07.459Z,27.90
2022-07-31T09:20:34.193Z,28.10
2022-07-31T09:23:00.168Z,28.20
2022-07-31T09:25:26.143Z,28.60
2022-07-31T09:27:52.172Z,28.50
2022-07-31T09:30:18.151Z,28.10
2022-07-31T09:32:44.130Z,28.10
2022-07-31T09:35:10.187Z,28.50
2022-07-31T09:37:36.163Z,28.60
2022-07-31T09:40:02.126Z,28.80
2022-07-31T09:42:28.147Z,29.00
2022-07-31T09:44:54.857Z,29.00
2022-07-31T09:47:20.847Z,28.90
2022-07-31T09:49:47.826Z,28.90
2022-07-31T09:52:14.099Z,28.80
2022-07-31T09:54:40.096Z,28.70
2022-07-31T09:57:06.423Z,28.80
2022-07-31T09:59:32.625Z,28.70
2022-07-31T10:01:58.609Z,28.70
2022-07-31T10:04:25.455Z,29.00
2022-07-31T10:06:51.432Z,29.30
2022-07-31T10:09:17.407Z,29.40
2022-07-31T10:11:43.419Z,29.40
2022-07-31T10:14:09.393Z,29.80
2022-07-31T10:16:35.997Z,29.30
2022-07-31T10:19:02.029Z,29.30
2022-07-31T10:21:28.000Z,29.70
2022-07-31T10:23:53.995Z,29.10
2022-07-31T10:26:20.025Z,29.20
2022-07-31T10:28:45.996Z,29.30
2022-07-31T10:31:11.969Z,29.40
2022-07-31T10:33:45.348Z,29.70
2022-07-31T10:36:11.387Z,30.00
2022-07-31T10:38:38.489Z,29.80
2022-07-31T10:41:05.183Z,30.00
2022-07-31T10:43:31.684Z,30.20
2022-07-31T10:45:58.659Z,30.00
2022-07-31T10:48:25.133Z,29.70
2022-07-31T10:50:51.112Z,29.70
2022-07-31T10:53:17.131Z,29.50
2022-07-31T10:55:43.099Z,29.60
2022-07-31T10:58:09.088Z,29.80
2022-07-31T11:00:35.110Z,30.30
2022-07-31T11:03:01.090Z,30.70
2022-07-31T11:05:27.576Z,30.90
2022-07-31T11:07:54.456Z,30.70
2022-07-31T11:10:21.167Z,30.70
2022-07-31T11:12:47.431Z,30.40
2022-07-31T11:15:13.497Z,30.20
2022-07-31T11:18:22.299Z,30.20
2022-07-31T11:20:25.999Z,30.60
2022-07-31T11:22:52.020Z,30.60
2022-07-31T11:25:17.992Z,30.90
2022-07-31T11:27:44.008Z,31.00
2022-07-31T11:30:13.528Z,30.90
2022-07-31T11:32:39.779Z,31.30
2022-07-31T11:35:05.814Z,31.30
2022-07-31T11:37:46.466Z,31.50
2022-07-31T11:40:17.821Z,31.70
2022-07-31T11:42:43.807Z,31.90
2022-07-31T11:45:12.351Z,32.30
2022-07-31T11:48:10.975Z,31.90
2022-07-31T11:50:25.447Z,31.80
2022-07-31T11:52:51.456Z,32.00
2022-07-31T11:55:17.428Z,32.10
2022-07-31T11:57:51.835Z,32.20
2022-07-31T12:00:26.288Z,32.00
2022-07-31T12:02:53.394Z,32.10
2022-07-31T12:05:19.585Z,32.20
2022-07-31T12:08:04.474Z,32.20
2022-07-31T12:10:31.380Z,31.90
2022-07-31T12:12:59.548Z,31.30
2022-07-31T12:15:26.242Z,31.10
2022-07-31T12:17:52.295Z,31.50
2022-07-31T12:20:29.960Z,31.60
2022-07-31T12:23:00.841Z,31.60
2022-07-31T12:25:26.819Z,31.30
2022-07-31T12:27:52.800Z,30.90
2022-07-31T12:30:18.810Z,30.50
2022-07-31T12:32:45.360Z,30.40
2022-07-31T12:35:11.325Z,30.30
2022-07-31T12:37:37.365Z,30.80
2022-07-31T12:40:03.399Z,31.30
2022-07-31T12:42:30.415Z,30.80
2022-07-31T12:44:57.345Z,30.80
2022-07-31T12:47:26.329Z,30.80
2022-07-31T12:49:52.459Z,31.00
2022-07-31T12:52:19.585Z,31.20
2022-07-31T12:54:45.571Z,31.00
2022-07-31T12:57:11.552Z,30.90
2022-07-31T12:59:37.582Z,30.80
2022-07-31T13:02:04.443Z,31.00
2022-07-31T13:04:31.911Z,30.70
2022-07-31T13:06:58.766Z,30.20
2022-07-31T13:09:25.030Z,30.40
2022-07-31T13:11:55.801Z,29.80
2022-07-31T13:14:25.291Z,29.80
2022-07-31T13:16:51.261Z,29.80
2022-07-31T13:19:17.615Z,29.80
2022-07-31T13:21:49.000Z,29.70
2022-07-31T13:24:16.610Z,29.80
2022-07-31T13:26:42.570Z,30.30
2022-07-31T13:29:08.587Z,30.80
2022-07-31T13:31:34.565Z,30.80
2022-07-31T13:34:00.536Z,30.80
2022-07-31T13:36:26.562Z,30.70
2022-07-31T13:38:52.540Z,30.40
2022-07-31T13:41:18.554Z,30.90
2022-07-31T13:43:59.846Z,31.20
2022-07-31T13:46:26.772Z,31.00
2022-07-31T13:48:52.922Z,31.00
2022-07-31T13:51:19.683Z,31.30
2022-07-31T13:53:51.820Z,31.60
2022-07-31T13:56:39.039Z,32.10
2022-07-31T13:59:06.207Z,32.00
2022-07-31T14:02:02.813Z,31.70
2022-07-31T14:04:23.422Z,32.20
2022-07-31T14:06:51.821Z,32.40
2022-07-31T14:09:18.647Z,32.70
2022-07-31T14:11:44.619Z,32.90
2022-07-31T14:14:11.752Z,32.50
2022-07-31T14:16:38.919Z,31.80
2022-07-31T14:19:05.688Z,31.40
2022-07-31T14:21:32.627Z,31.40
2022-07-31T14:23:58.604Z,31.20
2022-07-31T14:26:25.125Z,30.90
2022-07-31T14:28:51.152Z,30.50
2022-07-31T14:31:17.156Z,30.50
2022-07-31T14:33:43.149Z,30.40
2022-07-31T14:36:09.207Z,30.20
2022-07-31T14:38:35.195Z,30.00
2022-07-31T14:41:01.167Z,29.50
2022-07-31T14:43:27.180Z,30.00
2022-07-31T14:45:53.153Z,30.30
2022-07-31T14:48:19.136Z,30.30
2022-07-31T14:50:45.180Z,30.40
2022-07-31T14:53:11.153Z,30.90
2022-07-31T14:55:37.124Z,30.90
2022-07-31T14:58:03.153Z,30.60
2022-07-31T15:00:29.140Z,30.30
2022-07-31T15:02:55.129Z,30.10
2022-07-31T15:06:51.061Z,30.00
2022-07-31T15:08:07.115Z,30.20
2022-07-31T15:10:33.137Z,29.80
2022-07-31T15:12:59.115Z,29.70
2022-07-31T15:15:26.299Z,29.40
2022-07-31T15:17:55.559Z,29.20
2022-07-31T15:20:21.548Z,29.50
2022-07-31T15:22:58.988Z,29.60
2022-07-31T15:25:28.243Z,30.30
2022-07-31T15:27:54.228Z,30.60
2022-07-31T15:30:20.250Z,30.60
2022-07-31T15:32:46.224Z,30.90
2022-07-31T15:35:12.199Z,31.00
2022-07-31T15:37:38.228Z,31.00
2022-07-31T15:40:04.314Z,30.90
2022-07-31T15:42:30.395Z,30.90
2022-07-31T15:44:56.441Z,31.10
2022-07-31T15:47:22.415Z,31.30
2022-07-31T15:49:48.452Z,31.30
2022-07-31T15:52:14.533Z,30.90
2022-07-31T15:54:46.616Z,30.10
2022-07-31T15:57:12.634Z,30.10
2022-07-31T15:59:38.646Z,30.30
2022-07-31T16:02:05.748Z,30.30
2022-07-31T16:04:31.779Z,30.30
2022-07-31T16:06:57.816Z,30.60
2022-07-31T16:09:25.747Z,30.60
2022-07-31T16:12:05.079Z,30.50
2022-07-31T16:14:31.749Z,30.70
2022-07-31T16:16:57.716Z,30.50
2022-07-31T16:19:23.864Z,29.90
2022-07-31T16:21:49.887Z,29.30
2022-07-31T16:24:15.949Z,29.20
2022-07-31T16:26:49.579Z,29.00
2022-07-31T16:29:17.711Z,28.70
2022-07-31T16:31:44.609Z,28.30
2022-07-31T16:34:11.369Z,28.30
2022-07-31T16:36:38.318Z,28.30
2022-07-31T16:39:19.859Z,28.40
2022-07-31T16:41:54.509Z,28.40
2022-07-31T16:44:21.374Z,28.40
2022-07-31T16:46:52.815Z,28.40
2022-07-31T16:49:31.930Z,28.30
2022-07-31T16:52:03.111Z,28.70
2022-07-31T16:54:29.244Z,29.10
2022-07-31T16:56:55.221Z,28.80
2022-07-31T16:59:21.298Z,28.80
2022-07-31T17:01:57.726Z,29.00
2022-07-31T17:04:27.143Z,29.50
2022-07-31T17:06:53.127Z,29.60
2022-07-31T17:09:19.112Z,29.30
2022-07-31T17:11:45.135Z,29.30
2022-07-31T17:14:11.117Z,29.20
2022-07-31T17:16:37.079Z,28.70
2022-07-31T17:19:05.776Z,28.60
2022-07-31T17:21:31.938Z,28.60
2022-07-31T17:23:58.983Z,28.70
2022-07-31T17:26:25.199Z,28.00
2022-07-31T17:28:55.083Z,28.00
2022-07-31T17:31:21.047Z,27.90
2022-07-31T17:33:54.849Z,27.40
2022-07-31T17:36:25.925Z,27.70
2022-07-31T17:38:52.401Z,27.60
2022-07-31T17:41:24.723Z,27.90
2022-07-31T17:43:53.059Z,28.10
2022-07-31T17:46:28.213Z,27.90
2022-07-31T17:49:00.900Z,27.70
2022-07-31T17:51:26.912Z,28.00
2022-07-31T17:54:00.306Z,27.80
2022-07-31T17:56:26.582Z,27.90
2022-07-31T17:58:52.613Z,28.10
2022-07-31T18:01:18.629Z,28.10
2022-07-31T18:03:44.723Z,27.90
2022-07-31T18:06:10.712Z,27.90
2022-07-31T18:08:36.690Z,27.80
2022-07-31T18:11:02.845Z,27.70
2022-07-31T18:13:28.822Z,27.50
2022-07-31T18:15:54.833Z,27.60
2022-07-31T18:18:21.750Z,27.50
2022-07-31T18:20:47.732Z,27.40
2022-07-31T18:23:14.326Z,27.40
2022-07-31T18:25:40.825Z,26.90
2022-07-31T18:28:07.467Z,26.90
2022-07-31T18:30:35.920Z,26.80
2022-07-31T18:33:04.686Z,26.00
2022-07-31T18:35:30.654Z,25.70
2022-07-31T18:37:57.011Z,25.90
2022-07-31T18:40:26.536Z,26.20
2022-07-31T18:42:52.529Z,26.20
2022-07-31T18:45:18.502Z,26.20
2022-07-31T18:47:47.544Z,26.20
2022-07-31T18:50:59.944Z,26.20
2022-07-31T18:53:00.568Z,26.00
2022-07-31T18:55:26.714Z,25.60
2022-07-31T18:57:55.873Z,25.30
2022-07-31T19:00:25.183Z,25.50
2022-07-31T19:02:51.171Z,25.60
2022-07-31T19:05:21.714Z,25.40
2022-07-31T19:07:48.867Z,25.00
2022-07-31T19:10:29.258Z,24.80
2022-07-31T19:15:47.607Z,24.50
2022-07-31T19:18:15.173Z,24.70
2022-07-31T19:20:58.842Z,24.80
2022-07-31T19:23:27.452Z,24.70
2022-07-31T19:26:02.718Z,24.70
2022-07-31T19:28:30.253Z,24.30
2022-07-31T19:30:56.240Z,24.30
2022-07-31T19:33:22.222Z,24.30
2022-07-31T19:35:58.535Z,24.10
2022-07-31T19:38:26.594Z,23.80
2022-07-31T19:40:53.426Z,23.40
2022-07-31T19:43:20.133Z,23.70
2022-07-31T19:46:00.598Z,23.40
2022-07-31T19:48:33.336Z,23.30
2022-07-31T19:50:59.316Z,23.50
2022-07-31T19:53:26.169Z,23.70
2022-07-31T19:55:52.190Z,23.90
2022-07-31T19:58:18.194Z,23.90
2022-07-31T20:00:44.181Z,23.90
2022-07-31T20:03:10.261Z,23.20
2022-07-31T20:05:36.288Z,23.00
2022-07-31T20:08:02.260Z,23.40
2022-07-31T20:10:28.305Z,23.50
2022-07-31T20:12:54.282Z,23.60
2022-07-31T20:15:20.258Z,23.70
2022-07-31T20:17:47.612Z,23.50
2022-07-31T20:20:15.560Z,23.50
2022-07-31T20:22:42.091Z,23.70
2022-07-31T20:27:58.857Z,23.50
2022-07-31T20:30:24.880Z,23.60
2022-07-31T20:32:50.847Z,23.70
2022-07-31T20:35:35.290Z,23.40
2022-07-31T20:38:03.449Z,23.50
2022-07-31T20:40:29.416Z,23.40
2022-07-31T20:42:55.399Z,23.20
2022-07-31T20:45:21.420Z,23.10
2022-07-31T20:47:47.391Z,23.40
2022-07-31T20:50:13.364Z,23.50
2022-07-31T20:52:39.384Z,23.60
2022-07-31T20:55:05.373Z,23.70
2022-07-31T20:57:31.345Z,23.70
2022-07-31T20:59:57.368Z,23.80
2022-07-31T21:02:23.523Z,23.70
2022-07-31T21:04:50.287Z,23.70
2022-07-31T21:07:16.356Z,23.20
2022-07-31T21:09:42.364Z,23.20
2022-07-31T21:12:08.485Z,23.40
2022-07-31T21:14:35.389Z,23.50
2022-07-31T21:17:01.402Z,23.60
2022-07-31T21:19:27.397Z,23.60
2022-07-31T21:21:53.460Z,23.70
2022-07-31T21:24:19.469Z,23.50
2022-07-31T21:26:45.432Z,23.50
2022-07-31T21:29:11.590Z,23.50
2022-07-31T21:31:37.692Z,23.10
2022-07-31T21:34:15.223Z,23.10
2022-07-31T21:36:41.191Z,22.90
2022-07-31T21:39:07.185Z,23.10
2022-07-31T21:41:38.727Z,23.00
2022-07-31T21:44:08.479Z,23.20
2022-07-31T21:46:38.417Z,23.30
2022-07-31T21:49:04.490Z,23.40
2022-07-31T21:51:30.520Z,23.30
2022-07-31T21:53:56.543Z,23.30
2022-07-31T21:56:22.510Z,23.30
2022-07-31T21:58:48.488Z,23.30
2022-07-31T22:01:14.531Z,23.20
2022-07-31T22:03:40.524Z,23.30
2022-07-31T22:06:06.496Z,23.10
2022-07-31T22:08:32.542Z,23.20
2022-07-31T22:10:58.508Z,23.10
2022-07-31T22:13:24.488Z,23.10
2022-07-31T22:15:59.977Z,23.10
2022-07-31T22:18:26.836Z,23.10
2022-07-31T22:20:53.771Z,22.60
2022-07-31T22:23:20.482Z,22.50
2022-07-31T22:25:46.783Z,22.70
2022-07-31T22:28:13.456Z,22.80
2022-07-31T22:30:40.196Z,22.90
2022-07-31T22:33:06.182Z,22.90
2022-07-31T22:35:32.203Z,22.80
2022-07-31T22:37:58.269Z,22.80
2022-07-31T22:40:24.255Z,22.80
2022-07-31T22:42:56.565Z,22.70
2022-07-31T22:45:24.166Z,22.80
2022-07-31T22:47:50.180Z,22.70
2022-07-31T22:50:16.167Z,22.70
2022-07-31T22:52:42.180Z,22.60
2022-07-31T22:55:08.200Z,22.60
2022-07-31T22:57:34.178Z,22.10
2022-07-31T23:00:00.169Z,22.20
2022-07-31T23:02:26.241Z,22.30
2022-07-31T23:04:52.253Z,22.40
2022-07-31T23:07:18.232Z,22.30
2022-07-31T23:09:44.242Z,22.30
2022-07-31T23:12:10.797Z,22.40
2022-07-31T23:14:37.422Z,22.00
2022-07-31T23:17:03.786Z,22.10
2022-07-31T23:19:29.784Z,22.10
2022-07-31T23:21:55.763Z,22.20
2022-07-31T23:24:21.793Z,22.20
2022-07-31T23:26:47.768Z,22.30
2022-07-31T23:29:13.749Z,22.20
2022-07-31T23:31:39.773Z,22.30
2022-07-31T23:34:05.762Z,22.30
2022-07-31T23:36:31.741Z,21.90
2022-07-31T23:38:57.773Z,22.10
2022-07-31T23:41:23.756Z,22.20
2022-07-31T23:43:54.407Z,22.30
2022-07-31T23:46:24.487Z,22.20
2022-07-31T23:48:53.085Z,22.20
2022-07-31T23:51:19.111Z,22.10
2022-07-31T23:53:47.005Z,22.10
2022-07-31T23:56:19.426Z,22.20
2022-07-31T23:58:45.778Z,22.10
